Aviation Digital Data Service (ADDS)

Output produced by METARs form (1201 UTC 22 March 2019)
found at http://www.aviationweather.gov/metar/data/
 
Forecast for: OPDG (DERA GHAZI , PK)
Text: TAF OPDG 221000Z 2212/2306 36010KT 5000 FU FEW040 SCT120 TN15/2301Z
Forecast period: 1200 UTC 22 March 2019 to 0600 UTC 23 March 2019
Forecast type: FROM: standard forecast or significant change
Winds: from the N (360 degrees) at 12 MPH (10 knots; 5.1 m/s)
Visibility: 3 miles (5 km)
Ceiling: at least 12,000 feet AGL
Clouds: few clouds at 4000 feet AGL
scattered clouds at 12000 feet AGL
Weather: FU  (smoke)